createdAt,value
2018-12-29T00:00:00.185Z,47.80
2018-12-29T00:00:59.903Z,52.35
2018-12-29T00:03:55.076Z,47.40
2018-12-29T00:05:02.019Z,46.40
2018-12-29T00:06:09.033Z,44.33
2018-12-29T00:07:16.075Z,48.85
2018-12-29T00:08:23.089Z,43.80
2018-12-29T00:09:30.030Z,48.33
2018-12-29T00:10:37.087Z,49.05
2018-12-29T00:11:44.079Z,47.15
2018-12-29T00:12:51.047Z,47.75
2018-12-29T00:14:17.912Z,48.38
2018-12-29T00:15:24.842Z,44.35
2018-12-29T00:16:31.793Z,48.70
2018-12-29T00:17:38.904Z,44.58
2018-12-29T00:18:45.840Z,46.48
2018-12-29T00:19:52.864Z,47.08
2018-12-29T00:20:59.775Z,49.13
2018-12-29T00:22:06.775Z,47.62
2018-12-29T00:23:13.732Z,45.28
2018-12-29T00:24:20.815Z,47.95
2018-12-29T00:25:27.801Z,50.03
2018-12-29T00:26:34.719Z,49.65
2018-12-29T00:27:41.711Z,50.50
2018-12-29T00:28:48.696Z,50.52
2018-12-29T00:29:55.640Z,50.05
2018-12-29T00:31:02.625Z,48.28
2018-12-29T00:32:09.579Z,47.78
2018-12-29T00:33:16.612Z,50.17
2018-12-29T00:34:23.526Z,51.53
2018-12-29T00:35:30.516Z,52.90
2018-12-29T00:36:37.464Z,51.60
2018-12-29T00:37:44.423Z,52.62
2018-12-29T00:38:51.437Z,52.50
2018-12-29T00:39:58.405Z,50.67
2018-12-29T00:41:05.358Z,51.15
2018-12-29T00:42:12.346Z,52.00
2018-12-29T00:43:19.311Z,48.65
2018-12-29T00:44:26.262Z,50.03
2018-12-29T00:45:33.264Z,51.90
2018-12-29T00:46:42.107Z,55.83
2018-12-29T00:47:49.133Z,50.88
2018-12-29T00:48:56.091Z,55.38
2018-12-29T00:50:03.071Z,55.85
2018-12-29T00:51:10.056Z,54.18
2018-12-29T00:52:18.915Z,51.85
2018-12-29T00:53:25.915Z,51.80
2018-12-29T00:54:32.883Z,55.35
2018-12-29T00:55:39.847Z,53.90
2018-12-29T00:56:47.164Z,53.33
2018-12-29T00:57:54.084Z,56.02
2018-12-29T00:59:01.076Z,55.88
2018-12-29T01:01:56.284Z,55.35
2018-12-29T01:03:03.274Z,53.10
2018-12-29T01:04:10.235Z,53.23
2018-12-29T01:05:17.193Z,52.35
2018-12-29T01:06:24.126Z,54.67
2018-12-29T01:07:31.203Z,55.05
2018-12-29T01:08:38.287Z,55.30
2018-12-29T01:09:45.289Z,53.68
2018-12-29T01:10:52.259Z,55.23
2018-12-29T01:11:59.253Z,55.63
2018-12-29T01:13:06.288Z,55.78
2018-12-29T01:14:13.264Z,56.90
2018-12-29T01:15:20.220Z,55.73
2018-12-29T01:16:27.192Z,55.43
2018-12-29T01:17:36.244Z,53.30
2018-12-29T01:21:50.240Z,50.73
2018-12-29T01:22:57.284Z,55.65
2018-12-29T01:24:04.383Z,53.28
2018-12-29T01:25:11.387Z,57.25
2018-12-29T01:26:18.472Z,55.63
2018-12-29T01:27:25.520Z,57.20
2018-12-29T01:28:32.486Z,58.73
2018-12-29T01:29:39.499Z,56.45
2018-12-29T01:30:46.425Z,58.30
2018-12-29T01:31:53.386Z,59.05
2018-12-29T01:33:00.410Z,54.98
2018-12-29T01:34:00.477Z,55.50
2018-12-29T01:35:00.168Z,53.35
2018-12-29T01:36:00.567Z,53.50
2018-12-29T01:37:01.064Z,56.42
2018-12-29T01:38:00.707Z,55.28
2018-12-29T01:39:01.131Z,57.48
2018-12-29T01:40:04.664Z,53.10
2018-12-29T01:41:05.206Z,56.92
2018-12-29T01:42:05.635Z,58.08
2018-12-29T01:43:06.107Z,58.40
2018-12-29T01:44:04.187Z,55.78
2018-12-29T01:45:17.515Z,56.80
2018-12-29T01:46:43.033Z,55.58
2018-12-29T01:47:50.061Z,55.50
2018-12-29T01:48:57.135Z,53.33
2018-12-29T01:50:04.202Z,57.20
2018-12-29T01:51:11.215Z,57.55
2018-12-29T01:52:18.282Z,58.02
2018-12-29T01:53:25.335Z,59.60
2018-12-29T01:54:32.234Z,56.05
2018-12-29T01:55:39.319Z,54.35
2018-12-29T01:56:46.279Z,52.75
2018-12-29T01:57:53.278Z,57.65
2018-12-29T01:59:00.413Z,52.00
2018-12-29T02:00:27.188Z,54.58
2018-12-29T02:01:36.059Z,55.52
2018-12-29T02:02:43.055Z,52.93
2018-12-29T02:03:50.025Z,51.48
2018-12-29T02:04:57.085Z,53.48
2018-12-29T02:06:04.111Z,54.60
2018-12-29T02:07:11.025Z,57.38
2018-12-29T02:10:10.787Z,55.63
2018-12-29T02:11:17.721Z,50.88
2018-12-29T02:12:24.698Z,48.28
2018-12-29T02:13:31.665Z,52.40
2018-12-29T02:14:38.620Z,54.75
2018-12-29T02:16:05.473Z,51.88
2018-12-29T02:17:12.446Z,55.98
2018-12-29T02:18:19.408Z,49.70
2018-12-29T02:19:26.372Z,49.55
2018-12-29T02:20:33.392Z,55.95
2018-12-29T02:21:40.320Z,51.40
2018-12-29T02:22:47.292Z,51.18
2018-12-29T02:23:54.258Z,52.95
2018-12-29T02:25:01.206Z,55.08
2018-12-29T02:26:08.231Z,51.63
2018-12-29T02:27:15.152Z,54.55
2018-12-29T02:28:22.151Z,54.83
2018-12-29T02:29:29.091Z,53.63
2018-12-29T02:30:36.177Z,52.33
2018-12-29T02:31:54.970Z,53.55
2018-12-29T02:33:12.139Z,51.95
2018-12-29T02:34:12.061Z,53.52
2018-12-29T02:35:11.722Z,50.83
2018-12-29T02:36:12.234Z,52.03
2018-12-29T02:37:12.707Z,50.52
2018-12-29T02:38:12.205Z,53.20
2018-12-29T02:39:11.798Z,54.88
2018-12-29T02:40:11.410Z,51.98
2018-12-29T02:40:58.990Z,54.58
2018-12-29T02:42:05.959Z,49.67
2018-12-29T02:43:12.963Z,52.95
2018-12-29T02:44:19.878Z,48.65
2018-12-29T02:45:46.654Z,56.58
2018-12-29T02:46:53.624Z,52.38
2018-12-29T02:48:00.696Z,53.95
2018-12-29T02:49:07.630Z,51.00
2018-12-29T02:50:14.594Z,51.55
2018-12-29T02:51:21.571Z,54.00
2018-12-29T02:52:09.073Z,52.70
2018-12-29T02:53:16.077Z,49.00
2018-12-29T02:54:23.035Z,52.00
2018-12-29T02:55:30.007Z,55.80
2018-12-29T02:56:37.013Z,47.23
2018-12-29T02:57:44.001Z,47.30
2018-12-29T02:58:50.988Z,50.20
2018-12-29T02:59:58.058Z,50.55
2018-12-29T03:01:05.053Z,48.42
2018-12-29T03:02:12.000Z,52.43
2018-12-29T03:03:19.001Z,50.15
2018-12-29T03:04:26.188Z,53.45
2018-12-29T03:05:33.157Z,50.65
2018-12-29T03:06:40.213Z,52.10
2018-12-29T03:07:47.190Z,51.88
2018-12-29T03:09:13.995Z,49.93
2018-12-29T03:10:21.058Z,46.53
2018-12-29T03:11:28.068Z,48.80
2018-12-29T03:12:35.036Z,53.28
2018-12-29T03:13:42.000Z,48.25
2018-12-29T03:14:48.979Z,50.08
2018-12-29T03:15:55.949Z,49.03
2018-12-29T03:17:02.915Z,52.48
2018-12-29T03:19:36.621Z,49.58
2018-12-29T03:20:43.598Z,49.05
2018-12-29T03:21:50.564Z,44.53
2018-12-29T03:22:57.539Z,46.60
2018-12-29T03:24:04.507Z,49.83
2018-12-29T03:25:11.471Z,48.30
2018-12-29T03:26:18.449Z,49.88
2018-12-29T03:27:25.750Z,48.48
2018-12-29T03:28:34.566Z,49.33
2018-12-29T03:29:41.484Z,46.00
2018-12-29T03:30:48.459Z,49.10
2018-12-29T03:31:55.573Z,50.10
2018-12-29T03:33:02.512Z,47.95
2018-12-29T03:34:09.477Z,48.50
2018-12-29T03:35:09.631Z,49.90
2018-12-29T03:36:09.170Z,46.53
2018-12-29T03:37:08.753Z,48.05
2018-12-29T03:38:09.275Z,49.55
2018-12-29T03:39:08.944Z,46.65
2018-12-29T03:40:09.565Z,50.55
2018-12-29T03:41:09.127Z,50.90
2018-12-29T03:42:08.817Z,50.08
2018-12-29T03:43:09.305Z,49.93
2018-12-29T03:44:08.932Z,48.35
2018-12-29T03:45:08.609Z,50.08
2018-12-29T03:46:09.152Z,45.38
2018-12-29T03:47:08.736Z,48.02
2018-12-29T03:48:08.360Z,50.35
2018-12-29T03:49:09.200Z,50.30
2018-12-29T03:50:12.442Z,54.25
2018-12-29T03:51:12.083Z,48.23
2018-12-29T03:52:11.644Z,51.15
2018-12-29T03:53:11.181Z,49.70
2018-12-29T03:54:10.748Z,47.58
2018-12-29T03:55:10.296Z,45.80
2018-12-29T03:56:52.377Z,52.43
2018-12-29T03:57:51.984Z,50.33
2018-12-29T03:58:50.209Z,52.20
2018-12-29T03:59:57.148Z,53.55
2018-12-29T04:01:04.128Z,48.20
2018-12-29T04:02:11.091Z,51.80
2018-12-29T04:03:18.048Z,49.95
2018-12-29T04:04:25.047Z,49.10
2018-12-29T04:05:31.996Z,48.05
2018-12-29T04:06:38.974Z,46.80
2018-12-29T04:07:45.930Z,52.15
2018-12-29T04:09:12.363Z,48.23
2018-12-29T04:10:19.334Z,53.60
2018-12-29T04:11:26.287Z,48.70
2018-12-29T04:12:55.891Z,55.67
2018-12-29T04:14:02.864Z,55.08
2018-12-29T04:15:09.823Z,52.45
2018-12-29T04:16:16.810Z,46.50
2018-12-29T04:17:23.780Z,53.60
2018-12-29T04:18:30.760Z,47.10
2018-12-29T04:19:37.726Z,51.35
2018-12-29T04:20:44.688Z,50.73
2018-12-29T04:21:51.771Z,50.43
2018-12-29T04:22:58.746Z,46.15
2018-12-29T04:24:05.704Z,51.35
2018-12-29T04:25:12.657Z,52.05
2018-12-29T04:26:19.673Z,48.95
2018-12-29T04:27:26.595Z,52.25
2018-12-29T04:28:33.592Z,51.08
2018-12-29T04:29:40.531Z,51.98
2018-12-29T04:30:47.599Z,51.20
2018-12-29T04:31:54.727Z,54.45
2018-12-29T04:33:01.666Z,55.45
2018-12-29T04:34:08.764Z,55.73
2018-12-29T04:35:50.998Z,53.13
2018-12-29T04:36:54.485Z,52.90
2018-12-29T04:37:55.032Z,57.43
2018-12-29T04:38:57.628Z,51.00
2018-12-29T04:39:58.122Z,57.27
2018-12-29T04:40:57.759Z,54.35
2018-12-29T04:41:57.450Z,52.98
2018-12-29T04:42:57.175Z,54.63
2018-12-29T04:43:57.778Z,52.78
2018-12-29T04:44:45.378Z,54.73
2018-12-29T04:45:52.436Z,60.08
2018-12-29T04:46:59.387Z,53.13
2018-12-29T04:48:06.460Z,52.60
2018-12-29T04:49:13.427Z,52.62
2018-12-29T04:50:20.404Z,52.05
2018-12-29T04:51:27.397Z,59.38
2018-12-29T04:52:34.356Z,53.10
2018-12-29T04:53:41.311Z,56.13
2018-12-29T04:54:48.378Z,52.50
2018-12-29T04:55:55.429Z,53.30
2018-12-29T04:57:02.438Z,54.18
2018-12-29T04:58:09.396Z,54.15
2018-12-29T04:59:16.396Z,49.75
2018-12-29T05:00:23.335Z,53.30
2018-12-29T05:01:30.306Z,54.45
2018-12-29T05:02:37.276Z,49.27
2018-12-29T05:03:44.253Z,50.65
2018-12-29T05:04:51.240Z,51.85
2018-12-29T05:05:58.229Z,56.98
2018-12-29T05:07:05.521Z,54.70
2018-12-29T05:08:12.488Z,54.03
2018-12-29T05:09:19.426Z,54.73
2018-12-29T05:10:26.387Z,58.68
2018-12-29T05:11:33.365Z,55.38
2018-12-29T05:12:40.382Z,56.42
2018-12-29T05:13:47.293Z,53.15
2018-12-29T05:14:54.279Z,59.25
2018-12-29T05:16:01.234Z,57.80
2018-12-29T05:17:08.229Z,51.42
2018-12-29T05:18:15.175Z,56.75
2018-12-29T05:19:24.018Z,55.20
2018-12-29T05:20:30.976Z,56.75
2018-12-29T05:21:37.923Z,53.52
2018-12-29T05:22:44.884Z,55.23
2018-12-29T05:23:51.882Z,54.63
2018-12-29T05:24:58.849Z,51.95
2018-12-29T05:26:05.807Z,61.70
2018-12-29T05:27:12.779Z,58.65
2018-12-29T05:28:19.778Z,60.28
2018-12-29T05:29:46.559Z,54.53
2018-12-29T05:30:53.572Z,58.90
2018-12-29T05:32:00.524Z,60.30
2018-12-29T05:33:07.578Z,57.93
2018-12-29T05:34:14.552Z,53.85
2018-12-29T05:35:21.555Z,58.70
2018-12-29T05:36:28.536Z,52.70
2018-12-29T05:37:35.467Z,54.83
2018-12-29T05:38:22.979Z,60.10
2018-12-29T05:39:09.146Z,59.25
2018-12-29T05:39:54.919Z,58.05
2018-12-29T05:40:40.610Z,67.47
2018-12-29T05:41:26.335Z,59.00
2018-12-29T05:42:12.129Z,63.78
2018-12-29T05:42:58.418Z,61.13
2018-12-29T05:43:44.072Z,67.87
2018-12-29T05:44:29.711Z,65.35
2018-12-29T05:45:15.402Z,62.15
2018-12-29T05:46:01.032Z,58.10
2018-12-29T05:46:46.608Z,62.27
2018-12-29T05:47:32.357Z,62.45
2018-12-29T05:48:18.427Z,62.53
2018-12-29T05:49:04.099Z,62.75
2018-12-29T05:49:49.807Z,63.28
2018-12-29T05:50:35.551Z,58.33
2018-12-29T05:51:21.381Z,60.98
2018-12-29T05:52:07.620Z,60.52
2018-12-29T05:52:53.411Z,69.50
2018-12-29T05:53:39.152Z,65.35
2018-12-29T05:54:24.817Z,67.40
2018-12-29T05:55:10.390Z,62.98
2018-12-29T05:55:56.048Z,63.17
2018-12-29T05:56:41.662Z,58.48
2018-12-29T05:57:27.281Z,62.53
2018-12-29T05:58:13.238Z,60.73
2018-12-29T05:58:58.940Z,62.25
2018-12-29T05:59:44.640Z,65.55
2018-12-29T06:00:30.335Z,65.85
2018-12-29T06:01:16.550Z,61.88
2018-12-29T06:02:03.057Z,63.90
2018-12-29T06:02:49.047Z,62.50
2018-12-29T06:03:34.756Z,69.72
2018-12-29T06:04:20.579Z,61.83
2018-12-29T06:05:06.378Z,61.33
2018-12-29T06:05:51.971Z,60.05
2018-12-29T06:06:37.618Z,62.88
2018-12-29T06:07:23.309Z,67.87
2018-12-29T06:08:09.538Z,65.25
2018-12-29T06:08:55.143Z,58.48
2018-12-29T06:09:40.962Z,63.23
2018-12-29T06:10:26.917Z,61.25
2018-12-29T06:11:13.080Z,57.13
2018-12-29T06:11:58.712Z,63.08
2018-12-29T06:12:45.374Z,65.03
2018-12-29T06:13:31.050Z,65.90
2018-12-29T06:14:16.801Z,64.17
2018-12-29T06:15:02.587Z,62.25
2018-12-29T06:15:48.447Z,61.80
2018-12-29T06:16:34.213Z,60.83
2018-12-29T06:17:19.945Z,59.10
2018-12-29T06:18:06.798Z,58.65
2018-12-29T06:18:52.697Z,63.42
2018-12-29T06:19:38.813Z,57.50
2018-12-29T06:20:24.437Z,61.33
2018-12-29T06:21:10.056Z,57.05
2018-12-29T06:21:56.179Z,64.50
2018-12-29T06:22:41.839Z,61.40
2018-12-29T06:23:27.530Z,62.30
2018-12-29T06:24:13.183Z,63.75
2018-12-29T06:24:58.867Z,63.15
2018-12-29T06:25:44.537Z,63.68
2018-12-29T06:26:30.213Z,60.95
2018-12-29T06:27:16.555Z,59.90
2018-12-29T06:28:02.297Z,63.92
2018-12-29T06:28:48.030Z,65.35
2018-12-29T06:29:33.684Z,60.80
2018-12-29T06:30:19.339Z,59.40
2018-12-29T06:31:04.987Z,56.23
2018-12-29T06:31:50.807Z,56.08
2018-12-29T06:32:36.681Z,60.80
2018-12-29T06:33:22.336Z,60.33
2018-12-29T06:34:07.932Z,58.58
2018-12-29T06:34:54.340Z,55.58
2018-12-29T06:35:40.361Z,57.40
2018-12-29T06:36:26.035Z,58.75
2018-12-29T06:37:11.735Z,61.10
2018-12-29T06:37:57.404Z,52.88
2018-12-29T06:38:43.187Z,61.73
2018-12-29T06:39:28.899Z,65.62
2018-12-29T06:40:14.557Z,61.88
2018-12-29T06:41:00.196Z,56.20
2018-12-29T06:41:45.759Z,60.25
2018-12-29T06:42:31.425Z,56.60
2018-12-29T06:43:17.078Z,60.73
2018-12-29T06:44:03.276Z,61.45
2018-12-29T06:44:48.838Z,63.17
2018-12-29T06:45:34.493Z,57.93
2018-12-29T06:46:20.140Z,61.73
2018-12-29T06:47:06.382Z,60.25
2018-12-29T06:47:52.775Z,60.03
2018-12-29T06:48:38.585Z,54.95
2018-12-29T06:49:24.606Z,65.00
2018-12-29T06:50:10.349Z,56.98
2018-12-29T06:50:56.033Z,59.93
2018-12-29T06:51:41.666Z,62.75
2018-12-29T06:52:27.264Z,61.80
2018-12-29T06:53:13.099Z,58.35
2018-12-29T06:53:59.202Z,62.27
2018-12-29T06:54:44.875Z,55.40
2018-12-29T06:55:30.478Z,57.13
2018-12-29T06:56:16.170Z,56.73
2018-12-29T06:57:02.378Z,56.77
2018-12-29T06:57:48.099Z,58.42
2018-12-29T06:58:33.835Z,58.35
2018-12-29T06:59:19.520Z,59.70
2018-12-29T07:00:05.437Z,59.65
2018-12-29T07:00:51.555Z,62.00
2018-12-29T07:01:37.859Z,58.95
2018-12-29T07:02:24.113Z,61.28
2018-12-29T07:03:10.156Z,61.68
2018-12-29T07:03:55.874Z,58.02
2018-12-29T07:04:41.577Z,64.40
2018-12-29T07:05:27.764Z,57.55
2018-12-29T07:06:13.431Z,58.40
2018-12-29T07:06:59.384Z,57.85
2018-12-29T07:07:45.223Z,59.77
2018-12-29T07:08:30.902Z,61.73
2018-12-29T07:09:16.510Z,65.50
2018-12-29T07:10:02.142Z,59.50
2018-12-29T07:10:47.799Z,59.27
2018-12-29T07:11:34.038Z,56.23
2018-12-29T07:12:19.733Z,62.38
2018-12-29T07:13:05.614Z,58.78
2018-12-29T07:13:51.839Z,59.83
2018-12-29T07:14:37.952Z,55.10
2018-12-29T07:15:23.943Z,56.23
2018-12-29T07:16:09.530Z,55.00
2018-12-29T07:16:55.957Z,60.38
2018-12-29T07:17:42.070Z,61.10
2018-12-29T07:18:28.133Z,60.85
2018-12-29T07:19:14.208Z,62.80
2018-12-29T07:19:59.836Z,58.52
2018-12-29T07:20:45.508Z,62.08
2018-12-29T07:21:31.102Z,59.65
2018-12-29T07:22:16.807Z,63.48
2018-12-29T07:23:02.469Z,55.83
2018-12-29T07:23:48.194Z,58.68
2018-12-29T07:24:33.995Z,62.50
2018-12-29T07:25:19.757Z,64.97
2018-12-29T07:26:05.503Z,60.17
2018-12-29T07:26:51.881Z,60.60
2018-12-29T07:27:37.530Z,56.10
2018-12-29T07:28:23.151Z,57.45
2018-12-29T07:29:09.305Z,60.75
2018-12-29T07:29:54.979Z,60.25
2018-12-29T07:30:40.569Z,58.02
2018-12-29T07:31:26.273Z,58.78
2018-12-29T07:32:12.434Z,62.95
2018-12-29T07:32:58.043Z,59.77
2018-12-29T07:33:43.710Z,57.62
2018-12-29T07:34:29.343Z,63.05
2018-12-29T07:35:15.064Z,65.60
2018-12-29T07:36:00.881Z,64.40
2018-12-29T07:36:46.585Z,59.40
2018-12-29T07:37:32.245Z,59.40
2018-12-29T07:38:17.843Z,57.08
2018-12-29T07:39:05.182Z,57.78
2018-12-29T07:39:51.067Z,56.70
2018-12-29T07:40:36.779Z,62.40
2018-12-29T07:41:22.451Z,55.35
2018-12-29T07:42:08.191Z,57.60
2018-12-29T07:42:54.243Z,55.50
2018-12-29T07:43:40.337Z,62.85
2018-12-29T07:44:26.079Z,59.33
2018-12-29T07:45:12.104Z,60.40
2018-12-29T07:45:57.868Z,56.68
2018-12-29T07:46:49.615Z,57.20
2018-12-29T07:47:31.251Z,59.13
2018-12-29T07:48:16.947Z,59.33
2018-12-29T07:49:02.607Z,62.20
2018-12-29T07:49:48.353Z,58.05
2018-12-29T07:50:34.064Z,61.20
2018-12-29T07:51:19.711Z,57.83
2018-12-29T07:52:05.447Z,58.17
2018-12-29T07:52:51.537Z,57.80
2018-12-29T07:53:37.081Z,65.20
2018-12-29T07:54:22.726Z,62.08
2018-12-29T07:55:08.371Z,59.35
2018-12-29T07:55:54.045Z,62.73
2018-12-29T07:56:39.792Z,64.90
2018-12-29T07:57:25.475Z,63.60
2018-12-29T07:58:11.180Z,61.33
2018-12-29T07:58:56.895Z,59.85
2018-12-29T07:59:42.684Z,56.98
2018-12-29T08:00:28.495Z,62.70
2018-12-29T08:01:14.276Z,59.53
2018-12-29T08:01:59.925Z,55.83
2018-12-29T08:02:45.596Z,55.95
2018-12-29T08:03:31.245Z,59.53
2018-12-29T08:04:19.275Z,59.88
2018-12-29T08:05:05.184Z,61.15
2018-12-29T08:05:51.246Z,60.43
2018-12-29T08:06:36.912Z,61.83
2018-12-29T08:07:22.603Z,61.50
2018-12-29T08:08:08.293Z,57.15
2018-12-29T08:08:53.974Z,62.45
2018-12-29T08:09:39.672Z,60.78
2018-12-29T08:10:25.336Z,58.83
2018-12-29T08:11:11.104Z,59.98
2018-12-29T08:11:56.810Z,56.23
2018-12-29T08:12:42.578Z,58.60
2018-12-29T08:13:28.359Z,59.67
2018-12-29T08:14:14.376Z,61.40
2018-12-29T08:15:00.222Z,57.80
2018-12-29T08:15:46.241Z,56.98
2018-12-29T08:16:31.843Z,59.40
2018-12-29T08:17:17.504Z,63.83
2018-12-29T08:18:03.701Z,56.55
2018-12-29T08:18:49.378Z,54.25
2018-12-29T08:19:34.991Z,57.15
2018-12-29T08:20:20.575Z,60.12
2018-12-29T08:21:06.310Z,61.25
2018-12-29T08:21:52.061Z,56.60
2018-12-29T08:22:40.539Z,56.98
2018-12-29T08:23:26.421Z,57.58
2018-12-29T08:24:12.109Z,63.45
2018-12-29T08:24:57.832Z,58.20
2018-12-29T08:25:43.489Z,60.60
2018-12-29T08:26:29.249Z,61.00
2018-12-29T08:27:14.826Z,57.83
2018-12-29T08:28:00.493Z,60.05
2018-12-29T08:28:46.054Z,55.28
2018-12-29T08:29:31.726Z,58.70
2018-12-29T08:30:17.375Z,57.85
2018-12-29T08:31:03.431Z,57.85
2018-12-29T08:31:49.203Z,62.45
2018-12-29T08:32:35.371Z,55.05
2018-12-29T08:33:21.244Z,56.77
2018-12-29T08:34:07.080Z,54.35
2018-12-29T08:34:53.664Z,53.90
2018-12-29T08:35:39.399Z,68.95
2018-12-29T08:36:25.733Z,57.62
2018-12-29T08:37:11.876Z,56.30
2018-12-29T08:37:57.765Z,57.23
2018-12-29T08:38:43.407Z,57.85
2018-12-29T08:39:29.559Z,58.08
2018-12-29T08:40:15.875Z,61.33
2018-12-29T08:41:01.762Z,60.63
2018-12-29T08:41:47.412Z,59.20
2018-12-29T08:42:33.052Z,58.42
2018-12-29T08:43:18.735Z,60.70
2018-12-29T08:44:04.465Z,54.95
2018-12-29T08:44:50.703Z,57.23
2018-12-29T08:45:36.365Z,59.45
2018-12-29T08:46:22.181Z,70.12
2018-12-29T08:47:08.525Z,59.33
2018-12-29T08:47:54.380Z,61.28
2018-12-29T08:48:40.463Z,56.73
2018-12-29T08:49:26.284Z,59.55
2018-12-29T08:50:13.276Z,61.83
2018-12-29T08:50:59.806Z,50.30
2018-12-29T08:51:45.657Z,55.25
2018-12-29T08:52:31.339Z,55.88
2018-12-29T08:53:16.996Z,54.42
2018-12-29T08:54:02.663Z,50.85
2018-12-29T08:54:48.280Z,57.58
2018-12-29T08:55:34.455Z,53.80
2018-12-29T08:56:20.119Z,54.40
2018-12-29T08:57:06.306Z,52.40
2018-12-29T08:57:52.061Z,57.17
2018-12-29T08:58:38.271Z,56.20
2018-12-29T08:59:23.948Z,56.77
2018-12-29T09:00:09.566Z,54.85
2018-12-29T09:00:55.357Z,54.93
2018-12-29T09:01:41.552Z,56.80
2018-12-29T09:02:27.451Z,56.90
2018-12-29T09:03:13.570Z,53.28
2018-12-29T09:03:59.819Z,57.67
2018-12-29T09:04:47.046Z,54.35
2018-12-29T09:05:33.257Z,54.83
2018-12-29T09:06:19.381Z,59.77
2018-12-29T09:07:05.048Z,54.48
2018-12-29T09:07:50.651Z,52.10
2018-12-29T09:08:36.363Z,55.67
2018-12-29T09:09:22.019Z,53.23
2018-12-29T09:10:07.629Z,49.75
2018-12-29T09:10:53.378Z,56.83
2018-12-29T09:11:39.049Z,50.25
2018-12-29T09:12:24.766Z,47.30
2018-12-29T09:13:10.417Z,49.80
2018-12-29T09:13:56.128Z,54.48
2018-12-29T09:14:41.862Z,60.58
2018-12-29T09:15:27.727Z,49.90
2018-12-29T09:16:14.056Z,47.45
2018-12-29T09:17:00.164Z,52.23
2018-12-29T09:17:46.000Z,53.63
2018-12-29T09:18:32.030Z,58.55
2018-12-29T09:19:17.707Z,60.12
2018-12-29T09:20:03.706Z,57.73
2018-12-29T09:20:49.336Z,54.70
2018-12-29T09:21:35.032Z,55.33
2018-12-29T09:22:20.616Z,54.95
2018-12-29T09:23:06.247Z,52.25
2018-12-29T09:23:51.867Z,53.90
2018-12-29T09:24:37.583Z,56.23
2018-12-29T09:25:23.397Z,52.20
2018-12-29T09:26:09.663Z,51.42
2018-12-29T09:26:55.425Z,56.88
2018-12-29T09:27:41.079Z,50.90
2018-12-29T09:28:26.726Z,48.95
2018-12-29T09:29:12.357Z,50.58
2018-12-29T09:29:58.169Z,51.95
2018-12-29T09:30:44.032Z,53.10
2018-12-29T09:31:29.679Z,51.60
2018-12-29T09:32:15.321Z,55.80
2018-12-29T09:33:00.983Z,54.25
2018-12-29T09:33:46.783Z,50.20
2018-12-29T09:34:32.823Z,52.58
2018-12-29T09:35:18.590Z,50.28
2018-12-29T09:36:04.367Z,50.15
2018-12-29T09:36:50.090Z,51.30
2018-12-29T09:37:35.900Z,51.20
2018-12-29T09:38:21.544Z,50.85
2018-12-29T09:39:07.744Z,47.73
2018-12-29T09:39:53.438Z,48.35
2018-12-29T09:40:39.015Z,52.20
2018-12-29T09:41:24.705Z,46.40
2018-12-29T09:42:10.332Z,47.65
2018-12-29T09:42:56.026Z,48.85
2018-12-29T09:43:41.671Z,48.48
2018-12-29T09:44:27.248Z,49.00
2018-12-29T09:45:12.928Z,49.10
2018-12-29T09:45:59.179Z,47.60
2018-12-29T09:46:44.840Z,50.85
2018-12-29T09:47:30.672Z,49.70
2018-12-29T09:48:16.445Z,49.73
2018-12-29T09:49:02.175Z,51.58
2018-12-29T09:49:48.415Z,49.55
2018-12-29T09:50:34.052Z,48.17
2018-12-29T09:51:19.709Z,50.15
2018-12-29T09:52:05.347Z,54.48
2018-12-29T09:52:50.976Z,51.18
2018-12-29T09:53:36.609Z,52.45
2018-12-29T09:54:22.298Z,51.48
2018-12-29T09:55:08.513Z,51.18
2018-12-29T09:55:54.314Z,52.53
2018-12-29T09:56:40.044Z,47.80
2018-12-29T09:57:26.007Z,49.60
2018-12-29T09:58:12.180Z,49.20
2018-12-29T09:58:58.508Z,45.28
2018-12-29T09:59:45.710Z,47.17
2018-12-29T10:00:31.658Z,47.53
2018-12-29T10:01:17.480Z,52.98
2018-12-29T10:02:03.879Z,48.28
2018-12-29T10:02:49.805Z,45.75
2018-12-29T10:03:35.492Z,47.38
2018-12-29T10:04:21.092Z,50.85
2018-12-29T10:05:06.714Z,54.70
2018-12-29T10:05:52.362Z,53.17
2018-12-29T10:06:37.999Z,49.40
2018-12-29T10:07:23.653Z,55.30
2018-12-29T10:08:09.352Z,58.90
2018-12-29T10:08:54.992Z,48.05
2018-12-29T10:09:41.251Z,46.60
2018-12-29T10:10:27.066Z,49.95
2018-12-29T10:11:12.796Z,48.65
2018-12-29T10:11:58.631Z,49.95
2018-12-29T10:13:32.755Z,50.17
2018-12-29T10:14:18.469Z,46.05
2018-12-29T10:15:04.331Z,47.23
2018-12-29T10:15:50.160Z,45.28
2018-12-29T10:16:35.825Z,45.35
2018-12-29T10:17:26.868Z,48.30
2018-12-29T10:18:09.684Z,44.83
2018-12-29T10:18:55.342Z,45.38
2018-12-29T10:19:41.456Z,49.38
2018-12-29T10:20:27.054Z,45.90
2018-12-29T10:21:12.696Z,46.20
2018-12-29T10:21:58.353Z,46.40
2018-12-29T10:22:44.480Z,46.23
2018-12-29T10:23:30.703Z,50.60
2018-12-29T10:24:16.493Z,48.42
2018-12-29T10:25:02.893Z,45.52
2018-12-29T10:25:48.984Z,44.83
2018-12-29T10:26:34.666Z,44.55
2018-12-29T10:27:20.342Z,49.63
2018-12-29T10:28:06.203Z,40.88
2018-12-29T10:28:52.608Z,47.03
2018-12-29T10:29:38.603Z,45.10
2018-12-29T10:30:24.734Z,47.03
2018-12-29T10:31:10.960Z,46.00
2018-12-29T10:31:56.568Z,44.40
2018-12-29T10:32:42.187Z,45.45
2018-12-29T10:33:27.812Z,42.58
2018-12-29T10:34:13.538Z,48.10
2018-12-29T10:34:59.096Z,46.20
2018-12-29T10:35:45.363Z,45.33
2018-12-29T10:36:31.045Z,46.42
2018-12-29T10:37:16.796Z,50.58
2018-12-29T10:38:02.580Z,46.63
2018-12-29T10:38:48.302Z,48.52
2018-12-29T10:39:34.020Z,51.80
2018-12-29T10:40:19.688Z,43.70
2018-12-29T10:41:05.758Z,45.50
2018-12-29T10:41:51.437Z,44.25
2018-12-29T10:42:37.053Z,46.25
2018-12-29T10:43:22.714Z,45.35
2018-12-29T10:44:08.493Z,45.80
2018-12-29T10:44:54.202Z,48.38
2018-12-29T10:45:39.931Z,45.83
2018-12-29T10:46:26.142Z,44.03
2018-12-29T10:47:11.860Z,45.45
2018-12-29T10:47:57.602Z,48.20
2018-12-29T10:48:43.825Z,43.08
2018-12-29T10:49:29.578Z,46.65
2018-12-29T10:50:15.387Z,47.10
2018-12-29T10:51:01.601Z,48.48
2018-12-29T10:51:47.250Z,44.85
2018-12-29T10:52:32.873Z,44.65
2018-12-29T10:53:18.463Z,48.52
2018-12-29T10:54:04.141Z,44.48
2018-12-29T10:54:50.307Z,43.42
2018-12-29T10:55:35.977Z,47.65
2018-12-29T10:56:21.647Z,45.80
2018-12-29T10:57:07.780Z,48.28
2018-12-29T10:57:53.429Z,46.88
2018-12-29T10:58:39.143Z,43.85
2018-12-29T10:59:25.215Z,45.73
2018-12-29T11:00:12.505Z,44.53
2018-12-29T11:00:58.462Z,44.27
2018-12-29T11:01:44.225Z,48.83
2018-12-29T11:02:29.989Z,53.73
2018-12-29T11:03:15.703Z,45.20
2018-12-29T11:04:01.325Z,46.90
2018-12-29T11:04:47.540Z,49.45
2018-12-29T11:05:33.219Z,52.33
2018-12-29T11:06:18.877Z,48.87
2018-12-29T11:07:04.535Z,45.05
2018-12-29T11:07:50.267Z,46.55
2018-12-29T11:08:35.984Z,50.80
2018-12-29T11:09:21.789Z,89.60
2018-12-29T11:10:07.798Z,54.40
2018-12-29T11:10:53.531Z,45.80
2018-12-29T11:11:39.278Z,46.45
2018-12-29T11:12:25.027Z,45.98
2018-12-29T11:13:10.832Z,42.33
2018-12-29T11:13:56.600Z,43.20
2018-12-29T11:14:42.252Z,42.60
2018-12-29T11:15:27.962Z,41.50
2018-12-29T11:16:18.559Z,42.67
2018-12-29T11:17:04.312Z,44.93
2018-12-29T11:17:50.089Z,44.75
2018-12-29T11:18:36.055Z,42.38
2018-12-29T11:19:21.727Z,42.10
2018-12-29T11:20:07.335Z,41.58
2018-12-29T11:20:52.986Z,41.98
2018-12-29T11:21:38.653Z,42.73
2018-12-29T11:22:24.287Z,40.98
2018-12-29T11:23:10.079Z,40.80
2018-12-29T11:23:55.767Z,41.88
2018-12-29T11:24:41.461Z,43.08
2018-12-29T11:25:27.157Z,42.73
2018-12-29T11:26:12.858Z,41.95
2018-12-29T11:26:58.679Z,40.28
2018-12-29T11:27:44.478Z,41.68
2018-12-29T11:28:30.634Z,37.75
2018-12-29T11:29:16.253Z,41.75
2018-12-29T11:30:01.935Z,39.53
2018-12-29T11:30:47.774Z,39.53
2018-12-29T11:31:33.760Z,39.35
2018-12-29T11:32:19.414Z,39.40
2018-12-29T11:33:05.665Z,38.38
2018-12-29T11:33:51.292Z,36.95
2018-12-29T11:34:36.945Z,41.40
2018-12-29T11:35:28.766Z,41.83
2018-12-29T11:36:10.264Z,37.60
2018-12-29T11:36:55.963Z,39.73
2018-12-29T11:37:42.221Z,38.33
2018-12-29T11:38:28.471Z,40.65
2018-12-29T11:39:14.199Z,39.42
2018-12-29T11:39:59.922Z,43.17
2018-12-29T11:40:45.645Z,41.05
2018-12-29T11:41:31.307Z,40.50
2018-12-29T11:42:17.051Z,39.70
2018-12-29T11:43:02.762Z,39.80